sensor_id;sensor_type;location;lat;lon;timestamp;temperature;humidity
70271;SHT31;57680;54.292;18.598;2023-01-23T00:01:16;-0.14;85.03
70271;SHT31;57680;54.292;18.598;2023-01-23T00:03:42;-0.13;85.19
70271;SHT31;57680;54.292;18.598;2023-01-23T00:06:16;-0.16;85.54
70271;SHT31;57680;54.292;18.598;2023-01-23T00:08:44;-0.14;85.09
70271;SHT31;57680;54.292;18.598;2023-01-23T00:11:11;-0.16;84.91
70271;SHT31;57680;54.292;18.598;2023-01-23T00:13:37;-0.12;84.93
70271;SHT31;57680;54.292;18.598;2023-01-23T00:16:12;-0.10;84.65
70271;SHT31;57680;54.292;18.598;2023-01-23T00:18:38;-0.12;85.14
70271;SHT31;57680;54.292;18.598;2023-01-23T00:21:04;-0.12;85.23
70271;SHT31;57680;54.292;18.598;2023-01-23T00:23:31;-0.05;84.44
70271;SHT31;57680;54.292;18.598;2023-01-23T00:26:07;-0.09;82.50
70271;SHT31;57680;54.292;18.598;2023-01-23T00:28:35;-0.06;82.98
70271;SHT31;57680;54.292;18.598;2023-01-23T00:31:08;0.00;81.65
70271;SHT31;57680;54.292;18.598;2023-01-23T00:33:33;0.02;82.02
70271;SHT31;57680;54.292;18.598;2023-01-23T00:35:59;0.04;82.49
70271;SHT31;57680;54.292;18.598;2023-01-23T00:38:25;0.01;83.26
70271;SHT31;57680;54.292;18.598;2023-01-23T00:40:50;0.07;83.48
70271;SHT31;57680;54.292;18.598;2023-01-23T00:43:16;-0.03;83.54
70271;SHT31;57680;54.292;18.598;2023-01-23T00:45:42;-0.03;84.08
70271;SHT31;57680;54.292;18.598;2023-01-23T00:48:07;-0.02;84.52
70271;SHT31;57680;54.292;18.598;2023-01-23T00:50:32;0.00;84.83
70271;SHT31;57680;54.292;18.598;2023-01-23T00:52:58;-0.06;85.31
70271;SHT31;57680;54.292;18.598;2023-01-23T00:55:23;-0.09;85.48
70271;SHT31;57680;54.292;18.598;2023-01-23T00:57:49;-0.14;85.98
70271;SHT31;57680;54.292;18.598;2023-01-23T01:00:15;-0.12;85.83
70271;SHT31;57680;54.292;18.598;2023-01-23T01:02:40;-0.19;85.94
70271;SHT31;57680;54.292;18.598;2023-01-23T01:05:06;-0.16;85.68
70271;SHT31;57680;54.292;18.598;2023-01-23T01:07:32;-0.16;85.29
70271;SHT31;57680;54.292;18.598;2023-01-23T01:09:57;-0.13;85.58
70271;SHT31;57680;54.292;18.598;2023-01-23T01:12:23;-0.17;86.03
70271;SHT31;57680;54.292;18.598;2023-01-23T01:14:48;-0.14;85.87
70271;SHT31;57680;54.292;18.598;2023-01-23T01:17:13;-0.16;86.03
70271;SHT31;57680;54.292;18.598;2023-01-23T01:19:39;-0.17;85.80
70271;SHT31;57680;54.292;18.598;2023-01-23T01:22:04;-0.21;85.68
70271;SHT31;57680;54.292;18.598;2023-01-23T01:24:29;-0.16;84.41
70271;SHT31;57680;54.292;18.598;2023-01-23T01:26:55;-0.07;83.24
70271;SHT31;57680;54.292;18.598;2023-01-23T01:29:22;-0.06;83.48
70271;SHT31;57680;54.292;18.598;2023-01-23T01:31:48;-0.10;83.96
70271;SHT31;57680;54.292;18.598;2023-01-23T01:34:13;-0.06;84.41
70271;SHT31;57680;54.292;18.598;2023-01-23T01:36:39;-0.12;84.85
70271;SHT31;57680;54.292;18.598;2023-01-23T01:39:04;-0.13;84.81
70271;SHT31;57680;54.292;18.598;2023-01-23T01:41:30;-0.16;85.35
70271;SHT31;57680;54.292;18.598;2023-01-23T01:43:55;-0.14;85.67
70271;SHT31;57680;54.292;18.598;2023-01-23T01:46:29;-0.16;85.82
70271;SHT31;57680;54.292;18.598;2023-01-23T01:51:40;-0.19;85.64
70271;SHT31;57680;54.292;18.598;2023-01-23T01:54:35;-0.16;85.60
70271;SHT31;57680;54.292;18.598;2023-01-23T01:57:06;-0.21;85.88
70271;SHT31;57680;54.292;18.598;2023-01-23T01:59:50;-0.24;86.11
70271;SHT31;57680;54.292;18.598;2023-01-23T02:02:21;-0.26;86.45
70271;SHT31;57680;54.292;18.598;2023-01-23T02:04:50;-0.27;86.75
70271;SHT31;57680;54.292;18.598;2023-01-23T02:07:43;-0.23;86.65
70271;SHT31;57680;54.292;18.598;2023-01-23T02:10:07;-0.24;86.61
70271;SHT31;57680;54.292;18.598;2023-01-23T02:12:34;-0.23;86.19
70271;SHT31;57680;54.292;18.598;2023-01-23T02:15:01;-0.24;86.81
70271;SHT31;57680;54.292;18.598;2023-01-23T02:17:27;-0.24;87.08
70271;SHT31;57680;54.292;18.598;2023-01-23T02:22:57;-0.29;87.10
70271;SHT31;57680;54.292;18.598;2023-01-23T02:28:14;-0.27;87.94
70271;SHT31;57680;54.292;18.598;2023-01-23T02:30:41;-0.30;86.91
70271;SHT31;57680;54.292;18.598;2023-01-23T02:35:48;-0.29;87.19
70271;SHT31;57680;54.292;18.598;2023-01-23T02:38:16;-0.31;87.36
70271;SHT31;57680;54.292;18.598;2023-01-23T02:40:43;-0.33;87.52
70271;SHT31;57680;54.292;18.598;2023-01-23T02:43:12;-0.24;87.32
70271;SHT31;57680;54.292;18.598;2023-01-23T02:45:38;-0.26;86.79
70271;SHT31;57680;54.292;18.598;2023-01-23T02:48:04;-0.24;86.98
70271;SHT31;57680;54.292;18.598;2023-01-23T02:50:30;-0.24;87.16
70271;SHT31;57680;54.292;18.598;2023-01-23T02:52:56;-0.26;87.57
70271;SHT31;57680;54.292;18.598;2023-01-23T02:55:23;-0.31;87.58
70271;SHT31;57680;54.292;18.598;2023-01-23T02:57:51;-0.33;87.86
70271;SHT31;57680;54.292;18.598;2023-01-23T03:00:17;-0.34;87.39
70271;SHT31;57680;54.292;18.598;2023-01-23T03:02:50;-0.30;86.71
70271;SHT31;57680;54.292;18.598;2023-01-23T03:05:16;-0.27;86.86
70271;SHT31;57680;54.292;18.598;2023-01-23T03:07:42;-0.27;86.50
70271;SHT31;57680;54.292;18.598;2023-01-23T03:10:09;-0.34;86.58
70271;SHT31;57680;54.292;18.598;2023-01-23T03:12:35;-0.36;86.46
70271;SHT31;57680;54.292;18.598;2023-01-23T03:15:07;-0.37;86.60
70271;SHT31;57680;54.292;18.598;2023-01-23T03:17:32;-0.36;86.43
70271;SHT31;57680;54.292;18.598;2023-01-23T03:19:57;-0.38;86.64
70271;SHT31;57680;54.292;18.598;2023-01-23T03:22:23;-0.38;86.33
70271;SHT31;57680;54.292;18.598;2023-01-23T03:24:48;-0.37;86.28
70271;SHT31;57680;54.292;18.598;2023-01-23T03:27:14;-0.37;86.47
70271;SHT31;57680;54.292;18.598;2023-01-23T03:29:39;-0.40;86.57
70271;SHT31;57680;54.292;18.598;2023-01-23T03:32:30;-0.40;86.61
70271;SHT31;57680;54.292;18.598;2023-01-23T03:35:04;-0.40;86.46
70271;SHT31;57680;54.292;18.598;2023-01-23T03:37:33;-0.38;86.72
70271;SHT31;57680;54.292;18.598;2023-01-23T03:40:02;-0.38;86.85
70271;SHT31;57680;54.292;18.598;2023-01-23T03:42:46;-0.43;87.00
70271;SHT31;57680;54.292;18.598;2023-01-23T03:45:12;-0.40;86.81
70271;SHT31;57680;54.292;18.598;2023-01-23T03:47:38;-0.41;86.46
70271;SHT31;57680;54.292;18.598;2023-01-23T03:50:04;-0.40;86.56
70271;SHT31;57680;54.292;18.598;2023-01-23T03:52:30;-0.41;86.64
70271;SHT31;57680;54.292;18.598;2023-01-23T03:54:55;-0.37;86.33
70271;SHT31;57680;54.292;18.598;2023-01-23T03:57:21;-0.38;86.44
70271;SHT31;57680;54.292;18.598;2023-01-23T03:59:46;-0.37;86.07
70271;SHT31;57680;54.292;18.598;2023-01-23T04:02:12;-0.38;86.36
70271;SHT31;57680;54.292;18.598;2023-01-23T04:04:37;-0.37;86.42
70271;SHT31;57680;54.292;18.598;2023-01-23T04:07:05;-0.40;86.67
70271;SHT31;57680;54.292;18.598;2023-01-23T04:09:30;-0.37;86.69
70271;SHT31;57680;54.292;18.598;2023-01-23T04:11:57;-0.40;86.97
70271;SHT31;57680;54.292;18.598;2023-01-23T04:14:24;-0.38;86.75
70271;SHT31;57680;54.292;18.598;2023-01-23T04:16:50;-0.38;86.77
70271;SHT31;57680;54.292;18.598;2023-01-23T04:19:16;-0.38;86.86
70271;SHT31;57680;54.292;18.598;2023-01-23T04:21:48;-0.38;86.89
70271;SHT31;57680;54.292;18.598;2023-01-23T04:24:15;-0.37;87.05
70271;SHT31;57680;54.292;18.598;2023-01-23T04:26:41;-0.36;86.91
70271;SHT31;57680;54.292;18.598;2023-01-23T04:29:06;-0.38;86.68
70271;SHT31;57680;54.292;18.598;2023-01-23T04:31:32;-0.38;86.61
70271;SHT31;57680;54.292;18.598;2023-01-23T04:33:57;-0.37;86.64
70271;SHT31;57680;54.292;18.598;2023-01-23T04:36:22;-0.40;86.71
70271;SHT31;57680;54.292;18.598;2023-01-23T04:38:48;-0.36;86.69
70271;SHT31;57680;54.292;18.598;2023-01-23T04:41:24;-0.34;86.67
70271;SHT31;57680;54.292;18.598;2023-01-23T04:43:50;-0.37;86.99
70271;SHT31;57680;54.292;18.598;2023-01-23T04:46:15;-0.38;86.73
70271;SHT31;57680;54.292;18.598;2023-01-23T04:48:41;-0.38;86.96
70271;SHT31;57680;54.292;18.598;2023-01-23T04:51:06;-0.41;86.97
70271;SHT31;57680;54.292;18.598;2023-01-23T04:53:32;-0.38;87.15
70271;SHT31;57680;54.292;18.598;2023-01-23T04:55:57;-0.40;86.98
70271;SHT31;57680;54.292;18.598;2023-01-23T04:58:22;-0.40;86.84
70271;SHT31;57680;54.292;18.598;2023-01-23T05:00:48;-0.38;86.88
70271;SHT31;57680;54.292;18.598;2023-01-23T05:03:14;-0.43;86.53
70271;SHT31;57680;54.292;18.598;2023-01-23T05:05:40;-0.41;86.79
70271;SHT31;57680;54.292;18.598;2023-01-23T05:08:07;-0.38;86.71
70271;SHT31;57680;54.292;18.598;2023-01-23T05:10:32;-0.36;86.07
70271;SHT31;57680;54.292;18.598;2023-01-23T05:12:58;-0.38;86.23
70271;SHT31;57680;54.292;18.598;2023-01-23T05:15:24;-0.38;86.35
70271;SHT31;57680;54.292;18.598;2023-01-23T05:17:49;-0.36;86.43
70271;SHT31;57680;54.292;18.598;2023-01-23T05:20:15;-0.37;86.15
70271;SHT31;57680;54.292;18.598;2023-01-23T05:22:40;-0.37;86.26
70271;SHT31;57680;54.292;18.598;2023-01-23T05:25:26;-0.36;86.25
70271;SHT31;57680;54.292;18.598;2023-01-23T05:27:54;-0.33;86.19
70271;SHT31;57680;54.292;18.598;2023-01-23T05:30:21;-0.31;86.35
70271;SHT31;57680;54.292;18.598;2023-01-23T05:32:47;-0.30;86.09
70271;SHT31;57680;54.292;18.598;2023-01-23T05:35:13;-0.30;86.08
70271;SHT31;57680;54.292;18.598;2023-01-23T05:37:40;-0.30;86.21
70271;SHT31;57680;54.292;18.598;2023-01-23T05:40:09;-0.30;86.20
70271;SHT31;57680;54.292;18.598;2023-01-23T05:42:35;-0.31;86.26
70271;SHT31;57680;54.292;18.598;2023-01-23T05:45:00;-0.30;86.29
70271;SHT31;57680;54.292;18.598;2023-01-23T05:47:26;-0.26;85.87
70271;SHT31;57680;54.292;18.598;2023-01-23T05:49:52;-0.26;85.56
70271;SHT31;57680;54.292;18.598;2023-01-23T05:52:18;-0.29;85.68
70271;SHT31;57680;54.292;18.598;2023-01-23T05:54:43;-0.20;85.54
70271;SHT31;57680;54.292;18.598;2023-01-23T05:57:09;-0.23;85.22
70271;SHT31;57680;54.292;18.598;2023-01-23T05:59:34;-0.23;85.02
70271;SHT31;57680;54.292;18.598;2023-01-23T06:02:00;-0.23;85.11
70271;SHT31;57680;54.292;18.598;2023-01-23T06:04:25;-0.21;85.35
70271;SHT31;57680;54.292;18.598;2023-01-23T06:06:51;-0.23;85.37
70271;SHT31;57680;54.292;18.598;2023-01-23T06:09:17;-0.23;85.56
70271;SHT31;57680;54.292;18.598;2023-01-23T06:11:42;-0.26;85.62
70271;SHT31;57680;54.292;18.598;2023-01-23T06:14:08;-0.23;85.12
70271;SHT31;57680;54.292;18.598;2023-01-23T06:16:33;-0.21;84.79
70271;SHT31;57680;54.292;18.598;2023-01-23T06:18:59;-0.19;84.65
70271;SHT31;57680;54.292;18.598;2023-01-23T06:21:24;-0.19;84.92
70271;SHT31;57680;54.292;18.598;2023-01-23T06:23:49;-0.20;85.19
70271;SHT31;57680;54.292;18.598;2023-01-23T06:26:15;-0.19;85.11
70271;SHT31;57680;54.292;18.598;2023-01-23T06:28:40;-0.21;85.35
70271;SHT31;57680;54.292;18.598;2023-01-23T06:31:06;-0.21;84.88
70271;SHT31;57680;54.292;18.598;2023-01-23T06:33:36;-0.21;84.42
70271;SHT31;57680;54.292;18.598;2023-01-23T06:36:04;-0.23;84.60
70271;SHT31;57680;54.292;18.598;2023-01-23T06:38:31;-0.21;84.27
70271;SHT31;57680;54.292;18.598;2023-01-23T06:40:57;-0.20;84.29
70271;SHT31;57680;54.292;18.598;2023-01-23T06:43:23;-0.16;84.08
70271;SHT31;57680;54.292;18.598;2023-01-23T06:45:49;-0.14;83.56
70271;SHT31;57680;54.292;18.598;2023-01-23T06:48:15;-0.13;83.56
70271;SHT31;57680;54.292;18.598;2023-01-23T06:50:41;-0.13;83.69
70271;SHT31;57680;54.292;18.598;2023-01-23T06:53:08;-0.12;83.75
70271;SHT31;57680;54.292;18.598;2023-01-23T06:55:37;-0.13;83.98
70271;SHT31;57680;54.292;18.598;2023-01-23T06:58:02;-0.13;83.85
70271;SHT31;57680;54.292;18.598;2023-01-23T07:00:27;-0.12;83.89
70271;SHT31;57680;54.292;18.598;2023-01-23T07:02:53;-0.13;83.53
70271;SHT31;57680;54.292;18.598;2023-01-23T07:05:22;-0.14;83.84
70271;SHT31;57680;54.292;18.598;2023-01-23T07:07:50;-0.09;83.69
70271;SHT31;57680;54.292;18.598;2023-01-23T07:10:15;-0.10;84.24
70271;SHT31;57680;54.292;18.598;2023-01-23T07:12:41;-0.10;84.52
70271;SHT31;57680;54.292;18.598;2023-01-23T07:15:06;-0.10;84.97
70271;SHT31;57680;54.292;18.598;2023-01-23T07:17:32;-0.12;84.87
70271;SHT31;57680;54.292;18.598;2023-01-23T07:19:57;-0.12;84.55
70271;SHT31;57680;54.292;18.598;2023-01-23T07:22:23;-0.12;84.03
70271;SHT31;57680;54.292;18.598;2023-01-23T07:24:48;-0.09;84.11
70271;SHT31;57680;54.292;18.598;2023-01-23T07:27:14;-0.07;84.15
70271;SHT31;57680;54.292;18.598;2023-01-23T07:29:40;-0.07;84.17
70271;SHT31;57680;54.292;18.598;2023-01-23T07:32:06;-0.09;84.19
70271;SHT31;57680;54.292;18.598;2023-01-23T07:34:31;-0.07;83.89
70271;SHT31;57680;54.292;18.598;2023-01-23T07:36:57;-0.07;83.82
70271;SHT31;57680;54.292;18.598;2023-01-23T07:39:23;-0.05;83.95
70271;SHT31;57680;54.292;18.598;2023-01-23T07:41:48;-0.05;83.49
70271;SHT31;57680;54.292;18.598;2023-01-23T07:44:16;0.04;84.82
70271;SHT31;57680;54.292;18.598;2023-01-23T07:46:43;0.05;83.49
70271;SHT31;57680;54.292;18.598;2023-01-23T07:49:08;0.04;83.50
70271;SHT31;57680;54.292;18.598;2023-01-23T07:51:34;0.02;83.88
70271;SHT31;57680;54.292;18.598;2023-01-23T07:53:59;0.04;83.88
70271;SHT31;57680;54.292;18.598;2023-01-23T07:56:25;0.01;83.86
70271;SHT31;57680;54.292;18.598;2023-01-23T07:58:51;0.00;84.05
70271;SHT31;57680;54.292;18.598;2023-01-23T08:01:16;0.02;84.07
70271;SHT31;57680;54.292;18.598;2023-01-23T08:03:44;0.02;83.89
70271;SHT31;57680;54.292;18.598;2023-01-23T08:06:09;0.05;83.84
70271;SHT31;57680;54.292;18.598;2023-01-23T08:08:34;0.04;83.65
70271;SHT31;57680;54.292;18.598;2023-01-23T08:11:11;0.11;83.46
70271;SHT31;57680;54.292;18.598;2023-01-23T08:13:37;0.08;83.41
70271;SHT31;57680;54.292;18.598;2023-01-23T08:16:03;0.08;83.64
70271;SHT31;57680;54.292;18.598;2023-01-23T08:18:29;0.12;83.83
70271;SHT31;57680;54.292;18.598;2023-01-23T08:20:56;0.11;84.53
70271;SHT31;57680;54.292;18.598;2023-01-23T08:23:30;0.14;84.56
70271;SHT31;57680;54.292;18.598;2023-01-23T08:25:58;0.17;84.65
70271;SHT31;57680;54.292;18.598;2023-01-23T08:28:24;0.19;83.97
70271;SHT31;57680;54.292;18.598;2023-01-23T08:30:50;0.22;83.18
70271;SHT31;57680;54.292;18.598;2023-01-23T08:33:17;0.25;82.89
70271;SHT31;57680;54.292;18.598;2023-01-23T08:35:53;0.26;82.21
70271;SHT31;57680;54.292;18.598;2023-01-23T08:38:19;0.26;82.85
70271;SHT31;57680;54.292;18.598;2023-01-23T08:40:48;0.28;82.83
70271;SHT31;57680;54.292;18.598;2023-01-23T08:43:15;0.28;82.87
70271;SHT31;57680;54.292;18.598;2023-01-23T08:45:41;0.26;82.85
70271;SHT31;57680;54.292;18.598;2023-01-23T08:48:10;0.38;84.75
70271;SHT31;57680;54.292;18.598;2023-01-23T08:50:36;0.33;83.41
70271;SHT31;57680;54.292;18.598;2023-01-23T08:53:02;0.41;83.13
70271;SHT31;57680;54.292;18.598;2023-01-23T08:55:27;0.42;82.73
70271;SHT31;57680;54.292;18.598;2023-01-23T08:57:53;0.39;82.45
70271;SHT31;57680;54.292;18.598;2023-01-23T09:00:19;0.37;83.00
70271;SHT31;57680;54.292;18.598;2023-01-23T09:02:44;0.37;83.36
70271;SHT31;57680;54.292;18.598;2023-01-23T09:05:10;0.41;82.79
70271;SHT31;57680;54.292;18.598;2023-01-23T09:07:35;0.39;83.04
70271;SHT31;57680;54.292;18.598;2023-01-23T09:10:03;0.33;82.89
70271;SHT31;57680;54.292;18.598;2023-01-23T09:12:30;0.35;82.91
70271;SHT31;57680;54.292;18.598;2023-01-23T09:14:57;0.32;82.90
70271;SHT31;57680;54.292;18.598;2023-01-23T09:17:22;0.38;82.54
70271;SHT31;57680;54.292;18.598;2023-01-23T09:19:48;0.41;83.20
70271;SHT31;57680;54.292;18.598;2023-01-23T09:22:14;0.45;83.57
70271;SHT31;57680;54.292;18.598;2023-01-23T09:24:40;0.39;85.00
70271;SHT31;57680;54.292;18.598;2023-01-23T09:27:05;0.41;85.50
70271;SHT31;57680;54.292;18.598;2023-01-23T09:29:32;0.42;85.78
70271;SHT31;57680;54.292;18.598;2023-01-23T09:31:57;0.42;85.79
70271;SHT31;57680;54.292;18.598;2023-01-23T09:34:23;0.44;86.04
70271;SHT31;57680;54.292;18.598;2023-01-23T09:36:48;0.45;86.23
70271;SHT31;57680;54.292;18.598;2023-01-23T09:39:14;0.41;86.35
70271;SHT31;57680;54.292;18.598;2023-01-23T09:41:40;0.41;86.31
70271;SHT31;57680;54.292;18.598;2023-01-23T09:44:31;0.42;86.51
70271;SHT31;57680;54.292;18.598;2023-01-23T09:46:58;0.39;86.73
70271;SHT31;57680;54.292;18.598;2023-01-23T09:52:06;0.41;86.72
70271;SHT31;57680;54.292;18.598;2023-01-23T09:54:43;0.44;86.95
70271;SHT31;57680;54.292;18.598;2023-01-23T09:57:24;0.41;86.77
70271;SHT31;57680;54.292;18.598;2023-01-23T09:59:53;0.42;86.78
70271;SHT31;57680;54.292;18.598;2023-01-23T10:02:21;0.38;86.68
70271;SHT31;57680;54.292;18.598;2023-01-23T10:04:51;0.42;86.75
70271;SHT31;57680;54.292;18.598;2023-01-23T10:18:59;0.39;86.62
70271;SHT31;57680;54.292;18.598;2023-01-23T10:22:09;0.42;86.71
70271;SHT31;57680;54.292;18.598;2023-01-23T10:24:53;0.44;86.71
70271;SHT31;57680;54.292;18.598;2023-01-23T10:27:20;0.39;86.41
70271;SHT31;57680;54.292;18.598;2023-01-23T10:29:59;0.44;86.79
70271;SHT31;57680;54.292;18.598;2023-01-23T10:32:30;0.46;86.78
70271;SHT31;57680;54.292;18.598;2023-01-23T10:35:04;0.44;86.87
70271;SHT31;57680;54.292;18.598;2023-01-23T10:37:35;0.39;86.80
70271;SHT31;57680;54.292;18.598;2023-01-23T10:42:35;0.41;87.11
70271;SHT31;57680;54.292;18.598;2023-01-23T10:45:01;0.41;86.94
70271;SHT31;57680;54.292;18.598;2023-01-23T10:47:42;0.38;86.28
70271;SHT31;57680;54.292;18.598;2023-01-23T10:50:08;0.38;86.75
70271;SHT31;57680;54.292;18.598;2023-01-23T10:55:09;0.38;86.21
70271;SHT31;57680;54.292;18.598;2023-01-23T10:57:53;0.39;86.14
70271;SHT31;57680;54.292;18.598;2023-01-23T11:05:55;0.39;86.28
70271;SHT31;57680;54.292;18.598;2023-01-23T11:08:38;0.41;86.20
70271;SHT31;57680;54.292;18.598;2023-01-23T11:11:28;0.46;86.00
70271;SHT31;57680;54.292;18.598;2023-01-23T11:14:14;0.45;86.23
70271;SHT31;57680;54.292;18.598;2023-01-23T11:16:59;0.45;85.62
70271;SHT31;57680;54.292;18.598;2023-01-23T11:19:25;0.46;85.66
70271;SHT31;57680;54.292;18.598;2023-01-23T11:21:57;0.42;85.33
70271;SHT31;57680;54.292;18.598;2023-01-23T11:29:28;0.44;85.15
70271;SHT31;57680;54.292;18.598;2023-01-23T11:32:01;0.45;85.16
70271;SHT31;57680;54.292;18.598;2023-01-23T11:34:54;0.38;84.90
70271;SHT31;57680;54.292;18.598;2023-01-23T11:37:34;0.42;85.24
70271;SHT31;57680;54.292;18.598;2023-01-23T11:40:04;0.45;85.50
70271;SHT31;57680;54.292;18.598;2023-01-23T11:42:33;0.42;85.11
70271;SHT31;57680;54.292;18.598;2023-01-23T11:45:00;0.44;85.28
70271;SHT31;57680;54.292;18.598;2023-01-23T12:01:12;0.59;85.01
70271;SHT31;57680;54.292;18.598;2023-01-23T12:09:56;0.60;85.16
70271;SHT31;57680;54.292;18.598;2023-01-23T12:12:46;0.76;88.01
70271;SHT31;57680;54.292;18.598;2023-01-23T12:15:34;0.69;85.67
70271;SHT31;57680;54.292;18.598;2023-01-23T12:21:09;0.62;84.55
70271;SHT31;57680;54.292;18.598;2023-01-23T12:23:58;0.55;84.66
70271;SHT31;57680;54.292;18.598;2023-01-23T12:26:27;0.55;85.08
70271;SHT31;57680;54.292;18.598;2023-01-23T12:32:09;0.53;85.09
70271;SHT31;57680;54.292;18.598;2023-01-23T12:35:05;0.53;84.90
70271;SHT31;57680;54.292;18.598;2023-01-23T12:40:47;0.50;84.78
70271;SHT31;57680;54.292;18.598;2023-01-23T12:46:24;0.50;85.07
70271;SHT31;57680;54.292;18.598;2023-01-23T12:51:35;0.48;84.57
70271;SHT31;57680;54.292;18.598;2023-01-23T12:54:05;0.46;84.38
70271;SHT31;57680;54.292;18.598;2023-01-23T12:56:36;0.44;84.60
70271;SHT31;57680;54.292;18.598;2023-01-23T13:12:45;0.37;83.34
70271;SHT31;57680;54.292;18.598;2023-01-23T13:17:50;0.35;83.49
70271;SHT31;57680;54.292;18.598;2023-01-23T13:20:33;0.35;83.39
70271;SHT31;57680;54.292;18.598;2023-01-23T13:26:31;0.33;83.20
70271;SHT31;57680;54.292;18.598;2023-01-23T13:29:00;0.29;83.02
70271;SHT31;57680;54.292;18.598;2023-01-23T13:31:41;0.28;83.55
70271;SHT31;57680;54.292;18.598;2023-01-23T13:36:44;0.25;83.93
70271;SHT31;57680;54.292;18.598;2023-01-23T13:41:49;0.25;84.00
70271;SHT31;57680;54.292;18.598;2023-01-23T13:46:55;0.18;84.20
70271;SHT31;57680;54.292;18.598;2023-01-23T13:52:16;0.15;84.63
70271;SHT31;57680;54.292;18.598;2023-01-23T13:55:07;0.15;84.71
70271;SHT31;57680;54.292;18.598;2023-01-23T13:57:56;0.17;84.83
70271;SHT31;57680;54.292;18.598;2023-01-23T14:00:22;0.18;85.03
70271;SHT31;57680;54.292;18.598;2023-01-23T14:02:56;0.18;85.02
70271;SHT31;57680;54.292;18.598;2023-01-23T14:05:41;0.15;85.06
70271;SHT31;57680;54.292;18.598;2023-01-23T14:08:19;0.17;84.88
70271;SHT31;57680;54.292;18.598;2023-01-23T14:10:47;0.17;84.50
70271;SHT31;57680;54.292;18.598;2023-01-23T14:13:20;0.17;84.78
70271;SHT31;57680;54.292;18.598;2023-01-23T14:15:51;0.15;84.90
70271;SHT31;57680;54.292;18.598;2023-01-23T14:18:50;0.12;85.02
70271;SHT31;57680;54.292;18.598;2023-01-23T14:21:26;0.15;85.30
70271;SHT31;57680;54.292;18.598;2023-01-23T14:23:57;0.08;85.19
70271;SHT31;57680;54.292;18.598;2023-01-23T14:26:27;0.08;85.07
70271;SHT31;57680;54.292;18.598;2023-01-23T14:28:59;0.07;84.92
70271;SHT31;57680;54.292;18.598;2023-01-23T14:31:33;0.05;84.68
70271;SHT31;57680;54.292;18.598;2023-01-23T14:34:14;0.04;84.92
70271;SHT31;57680;54.292;18.598;2023-01-23T14:36:44;0.11;87.09
70271;SHT31;57680;54.292;18.598;2023-01-23T14:39:20;0.10;85.84
70271;SHT31;57680;54.292;18.598;2023-01-23T14:41:48;0.08;85.35
70271;SHT31;57680;54.292;18.598;2023-01-23T14:44:21;0.08;85.34
70271;SHT31;57680;54.292;18.598;2023-01-23T14:46:52;0.04;85.04
70271;SHT31;57680;54.292;18.598;2023-01-23T14:49:30;0.00;84.96
70271;SHT31;57680;54.292;18.598;2023-01-23T14:52:04;-0.02;85.07
70271;SHT31;57680;54.292;18.598;2023-01-23T14:54:31;0.00;85.20
70271;SHT31;57680;54.292;18.598;2023-01-23T14:56:57;-0.02;85.27
70271;SHT31;57680;54.292;18.598;2023-01-23T14:59:26;-0.03;85.18
70271;SHT31;57680;54.292;18.598;2023-01-23T15:01:54;-0.05;84.86
70271;SHT31;57680;54.292;18.598;2023-01-23T15:04:21;-0.07;84.71
70271;SHT31;57680;54.292;18.598;2023-01-23T15:06:53;-0.06;84.72
70271;SHT31;57680;54.292;18.598;2023-01-23T15:09:29;-0.07;84.59
70271;SHT31;57680;54.292;18.598;2023-01-23T15:12:02;-0.09;84.67
70271;SHT31;57680;54.292;18.598;2023-01-23T15:14:35;-0.07;84.68
70271;SHT31;57680;54.292;18.598;2023-01-23T15:17:02;-0.06;84.58
70271;SHT31;57680;54.292;18.598;2023-01-23T15:19:29;-0.05;84.74
70271;SHT31;57680;54.292;18.598;2023-01-23T15:22:18;-0.06;84.84
70271;SHT31;57680;54.292;18.598;2023-01-23T15:24:45;-0.07;84.88
70271;SHT31;57680;54.292;18.598;2023-01-23T15:29:49;-0.10;84.98
70271;SHT31;57680;54.292;18.598;2023-01-23T15:32:24;-0.13;84.83
70271;SHT31;57680;54.292;18.598;2023-01-23T15:34:54;-0.14;84.89
70271;SHT31;57680;54.292;18.598;2023-01-23T15:37:24;-0.13;85.37
70271;SHT31;57680;54.292;18.598;2023-01-23T15:39:54;-0.12;85.47
70271;SHT31;57680;54.292;18.598;2023-01-23T15:42:29;-0.12;85.63
70271;SHT31;57680;54.292;18.598;2023-01-23T15:44:54;-0.14;85.77
70271;SHT31;57680;54.292;18.598;2023-01-23T15:47:22;-0.16;85.26
70271;SHT31;57680;54.292;18.598;2023-01-23T15:49:48;-0.14;84.84
70271;SHT31;57680;54.292;18.598;2023-01-23T15:52:23;-0.16;84.95
70271;SHT31;57680;54.292;18.598;2023-01-23T15:54:51;-0.17;84.22
70271;SHT31;57680;54.292;18.598;2023-01-23T15:57:18;-0.14;84.30
70271;SHT31;57680;54.292;18.598;2023-01-23T15:59:43;-0.13;84.13
70271;SHT31;57680;54.292;18.598;2023-01-23T16:02:20;-0.14;83.89
70271;SHT31;57680;54.292;18.598;2023-01-23T16:04:46;-0.16;84.09
70271;SHT31;57680;54.292;18.598;2023-01-23T16:07:35;-0.13;84.19
70271;SHT31;57680;54.292;18.598;2023-01-23T16:10:24;-0.14;84.01
70271;SHT31;57680;54.292;18.598;2023-01-23T16:12:52;-0.14;83.85
70271;SHT31;57680;54.292;18.598;2023-01-23T16:15:21;-0.13;84.05
70271;SHT31;57680;54.292;18.598;2023-01-23T16:17:47;-0.13;84.04
70271;SHT31;57680;54.292;18.598;2023-01-23T16:20:14;-0.13;83.76
70271;SHT31;57680;54.292;18.598;2023-01-23T16:22:40;-0.12;83.83
70271;SHT31;57680;54.292;18.598;2023-01-23T16:25:15;-0.13;83.94
70271;SHT31;57680;54.292;18.598;2023-01-23T16:27:41;-0.13;83.83
70271;SHT31;57680;54.292;18.598;2023-01-23T16:30:15;-0.13;83.88
70271;SHT31;57680;54.292;18.598;2023-01-23T16:32:40;-0.13;83.95
70271;SHT31;57680;54.292;18.598;2023-01-23T16:35:07;-0.14;83.81
70271;SHT31;57680;54.292;18.598;2023-01-23T16:37:34;-0.14;83.79
70271;SHT31;57680;54.292;18.598;2023-01-23T16:40:00;-0.09;83.49
70271;SHT31;57680;54.292;18.598;2023-01-23T16:42:29;-0.13;84.02
70271;SHT31;57680;54.292;18.598;2023-01-23T16:44:55;-0.19;83.96
70271;SHT31;57680;54.292;18.598;2023-01-23T16:47:22;-0.16;84.11
70271;SHT31;57680;54.292;18.598;2023-01-23T16:49:47;-0.19;84.14
70271;SHT31;57680;54.292;18.598;2023-01-23T16:52:13;-0.19;84.50
70271;SHT31;57680;54.292;18.598;2023-01-23T16:54:40;-0.17;84.38
70271;SHT31;57680;54.292;18.598;2023-01-23T16:57:05;-0.19;84.47
70271;SHT31;57680;54.292;18.598;2023-01-23T16:59:38;-0.20;84.51
70271;SHT31;57680;54.292;18.598;2023-01-23T17:02:20;-0.13;86.07
70271;SHT31;57680;54.292;18.598;2023-01-23T17:04:46;-0.14;84.73
70271;SHT31;57680;54.292;18.598;2023-01-23T17:07:14;-0.17;84.49
70271;SHT31;57680;54.292;18.598;2023-01-23T17:09:39;-0.17;84.59
70271;SHT31;57680;54.292;18.598;2023-01-23T17:12:05;-0.19;84.78
70271;SHT31;57680;54.292;18.598;2023-01-23T17:14:36;-0.20;84.81
70271;SHT31;57680;54.292;18.598;2023-01-23T17:17:04;-0.21;84.80
70271;SHT31;57680;54.292;18.598;2023-01-23T17:19:34;-0.21;84.63
70271;SHT31;57680;54.292;18.598;2023-01-23T17:22:01;-0.23;84.80
70271;SHT31;57680;54.292;18.598;2023-01-23T17:24:28;-0.21;84.97